Airfield :
LOGIN :

Register | Disclaimer

   EN    FR    IT 

 










Legend :    VFR   Marginal VFR   IFR   Intensive IFR   Very Intensive IFR
Visi :
Ceiling :
>= 8 km
>= 3000ft
5 to 8 km
1000 to 3000 ft
1500m to 5 km
500 to 1000 ft
800 to 1500m
200 to 500 ft
< 800m
< 200 ft
Symbols :   Thunderstorms  Fog  Heavy snow  Heavy precipitations  Wind > 20 kt
SIGMETs :     Misc.  Thunderstorms  Icing  Turbulence  Mountain Waves  Volcanic Ashes







- Airport Elevation : 28 ft
- IATA code : SOZ
- Download approach charts


LFKS - Solenzara

CURRENT METAR :
  • 201730Z AUTO 06003KT 010V090 CAVOK 29/23 Q1013

EXPIRED METARs :
  • 201700Z AUTO 05004KT 020V090 CAVOK 29/23 Q1012
  • 201630Z AUTO 06005KT 030V090 9999 FEW084 30/22 Q1012
  • 201600Z AUTO 07005KT 040V100 CAVOK 29/22 Q1013
  • 201530Z AUTO 08005KT CAVOK 30/22 Q1013
  • 201500Z AUTO 07006KT 030V100 CAVOK 30/20 Q1013

TAF TAF LFKS
Valid from the 20 at 15:00 until the 21 at 15:00 UTC


201400Z 2015/2115 07010KT 9999 FEW040CB BKN260
BECMG 2017/2019 27005KT CAVOK
No reported NOTAMs for that airfield.
2 SIGMETs reported for the Marseille FIR (LFMM) :
 
SIGMET 3  cancelation
LFMM SIGMET 4 VALID 201735/201800 LFPW
LFMM MARSEILLE FIR/UIR CNL SIGMET 3 201700/201800=
SIGMET 3  CANCELED :
Embedded thunderstorms
LFMM SIGMET 3 VALID 201700/201800 LFPW
LFMM MARSEILLE FIR/UIR EMBD TS OBS WI N4415 E00545 - N4330 E00700 - N4300 E00615 - N4345 E00500 - N4415 E00545 TOP FL400 MOV SW 10KT NC=



MET'MAP, your aeronautical weather chart ! - Copyright ORBIFLY December 2007 - Disclaimer

ORBIFLY MET'MAP TEAM :

Programming & Development : Alexandra Zaïnal
Concept & Development : Baudouin d'Aumeries
Co-Development & Prog : Marc-Olivier Méhu
Technical & hardware support : Manuel Goepfert

Contact : metmap@orbifly.com




SOURCES & CREDITS :

   NOAA